Time;durP1;ratioP1;P1;durP2;ratioP2;P2;SDS_P1;SDS_P2;PMS_P1;PMS_P2;Temp;Humidity;BMP_temperature;BMP_pressure;BME280_temperature;BME280_humidity;BME280_pressure;Samples;Min_cycle;Max_cycle;Signal;HPM_P1;HPM_P2
2022/01/21 00:00:35;;;;;;;;;;;-0.90;99.90;;;;;;5177908;27;19926;-83
2022/01/21 00:03:02;;;;;;;;;;;-0.90;99.90;;;;;;5120491;27;19930;-83
2022/01/21 00:05:29;;;;;;;;;;;-0.90;99.90;;;;;;5099187;27;19954;-84
2022/01/21 00:07:55;;;;;;;;;;;-0.80;99.90;;;;;;5107784;28;19924;-82
2022/01/21 00:10:22;;;;;;;;;;;-0.90;99.90;;;;;;5002312;28;19934;-85
2022/01/21 00:12:52;;;;;;;;;;;-0.90;99.90;;;;;;4826806;29;19930;-82
2022/01/21 00:15:19;;;;;;;;;;;-0.90;99.90;;;;;;4574701;30;19936;-83
2022/01/21 00:30:24;;;;;;;;;;;-1.00;99.90;;;;;;5030880;28;19948;-81
2022/01/21 00:32:50;;;;;;;;;;;-1.00;99.90;;;;;;4864929;28;20009;-82
2022/01/21 00:35:18;;;;;;;;;;;-1.00;99.90;;;;;;4630644;30;19919;-81
2022/01/21 00:40:26;;;;;;;;;;;-1.00;99.90;;;;;;5195463;27;19925;-79
2022/01/21 00:43:11;;;;;;;;;;;-1.00;99.90;;;;;;5136779;27;19934;-80
2022/01/21 00:45:38;;;;;;;;;;;-1.00;99.90;;;;;;5105120;28;19924;-81
2022/01/21 00:48:05;;;;;;;;;;;-1.00;99.90;;;;;;5099527;27;19931;-80
2022/01/21 00:50:32;;;;;;;;;;;-1.00;99.90;;;;;;5011278;28;19934;-82
2022/01/21 00:52:58;;;;;;;;;;;-1.00;99.90;;;;;;4834321;29;19930;-82
2022/01/21 00:55:26;;;;;;;;;;;-1.00;99.90;;;;;;4655867;30;19941;-83
2022/01/21 01:02:58;;;;;;;;;;;-1.10;99.90;;;;;;5174566;27;19930;-85
2022/01/21 01:05:25;;;;;;;;;;;-1.10;99.90;;;;;;5142503;27;19992;-80
2022/01/21 01:07:53;;;;;;;;;;;-1.10;99.90;;;;;;5155781;27;19931;-82
2022/01/21 01:10:25;;;;;;;;;;;-1.10;99.90;;;;;;5113042;28;19908;-81
2022/01/21 01:19:52;;;;;;;;;;;-1.10;99.90;;;;;;5031425;28;19926;-81
2022/01/21 01:28:56;;;;;;;;;;;-1.10;99.90;;;;;;5113057;27;19924;-83
2022/01/21 01:31:23;;;;;;;;;;;-1.10;99.90;;;;;;5108588;28;19931;-82
2022/01/21 01:33:49;;;;;;;;;;;-1.10;99.90;;;;;;5084230;28;19939;-82
2022/01/21 01:36:16;;;;;;;;;;;-1.10;99.90;;;;;;5015425;28;19927;-83
2022/01/21 01:39:03;;;;;;;;;;;-1.10;99.90;;;;;;4847055;28;19938;-81
2022/01/21 01:41:36;;;;;;;;;;;-1.10;99.90;;;;;;4533301;30;19937;-82
2022/01/21 01:49:29;;;;;;;;;;;-1.20;99.90;;;;;;5159252;27;19941;-83
2022/01/21 01:51:56;;;;;;;;;;;-1.20;99.90;;;;;;5070720;28;19947;-84
2022/01/21 01:54:28;;;;;;;;;;;-1.10;99.90;;;;;;5069994;28;19925;-82
2022/01/21 01:56:56;;;;;;;;;;;-1.10;99.90;;;;;;5029227;28;19931;-80
2022/01/21 01:59:23;;;;;;;;;;;-1.20;99.90;;;;;;4917080;29;19929;-81
2022/01/21 02:01:51;;;;;;;;;;;-1.20;99.90;;;;;;4792769;29;19931;-80
2022/01/21 02:04:18;;;;;;;;;;;-1.20;99.90;;;;;;4555045;30;19946;-85
2022/01/21 02:11:24;;;;;;;;;;;-1.20;99.90;;;;;;5166250;27;19926;-81
2022/01/21 02:13:57;;;;;;;;;;;-1.20;99.90;;;;;;5113793;27;19923;-83
2022/01/21 02:16:36;;;;;;;;;;;-1.30;99.90;;;;;;5062042;28;19924;-80
2022/01/21 02:21:49;;;;;;;;;;;-1.20;99.90;;;;;;4880424;29;19937;-81
2022/01/21 02:24:18;;;;;;;;;;;-1.20;99.90;;;;;;4699066;29;19933;-82
2022/01/21 02:26:46;;;;;;;;;;;-1.30;99.90;;;;;;4501842;31;19944;-83
2022/01/21 02:34:18;;;;;;;;;;;-1.50;99.90;;;;;;5197372;27;19925;-81
2022/01/21 02:36:46;;;;;;;;;;;-1.50;99.90;;;;;;5161141;27;19907;-83
2022/01/21 02:39:13;;;;;;;;;;;-1.40;99.90;;;;;;5147499;27;19931;-83
2022/01/21 02:41:39;;;;;;;;;;;-1.50;99.90;;;;;;5108628;28;19928;-81
2022/01/21 02:44:08;;;;;;;;;;;-1.50;99.90;;;;;;5031717;28;19953;-83
2022/01/21 02:46:39;;;;;;;;;;;-1.50;99.90;;;;;;4883766;29;19929;-85
2022/01/21 02:49:06;;;;;;;;;;;-1.60;99.90;;;;;;4633295;30;19944;-82
2022/01/21 02:56:39;;;;;;;;;;;-1.60;99.90;;;;;;5182076;27;19925;-83
2022/01/21 02:59:07;;;;;;;;;;;-1.50;99.90;;;;;;5133622;27;19930;-84
2022/01/21 03:01:35;;;;;;;;;;;-1.50;99.90;;;;;;5130326;27;19923;-81
2022/01/21 03:04:02;;;;;;;;;;;-1.50;99.90;;;;;;5118636;27;19923;-82
2022/01/21 03:06:29;;;;;;;;;;;-1.60;99.90;;;;;;5068609;28;19933;-85
2022/01/21 03:08:57;;;;;;;;;;;-1.60;99.90;;;;;;4859004;29;19954;-84
2022/01/21 03:11:25;;;;;;;;;;;-1.60;99.90;;;;;;4617116;30;19934;-82
2022/01/21 03:17:22;;;;;;;;;;;-1.60;99.90;;;;;;5174378;27;19926;-82
2022/01/21 03:19:49;;;;;;;;;;;-1.60;99.90;;;;;;5137408;27;19923;-82
2022/01/21 03:22:15;;;;;;;;;;;-1.60;99.90;;;;;;5119690;27;19932;-81
2022/01/21 03:24:42;;;;;;;;;;;-1.60;99.90;;;;;;5110811;28;19923;-81
2022/01/21 03:27:09;;;;;;;;;;;-1.60;99.90;;;;;;5038470;28;19926;-84
2022/01/21 03:29:36;;;;;;;;;;;-1.60;99.90;;;;;;4845020;29;19931;-80
2022/01/21 03:32:03;;;;;;;;;;;-1.70;99.90;;;;;;4610771;30;19942;-82
2022/01/21 03:39:37;;;;;;;;;;;-1.70;99.90;;;;;;5179681;27;19926;-81
2022/01/21 03:42:04;;;;;;;;;;;-1.70;99.90;;;;;;5142468;27;19923;-80
2022/01/21 03:44:31;;;;;;;;;;;-1.70;99.90;;;;;;5115734;28;19923;-81
2022/01/21 03:46:58;;;;;;;;;;;-1.70;99.90;;;;;;5125841;28;19908;-84
2022/01/21 03:49:25;;;;;;;;;;;-1.60;99.90;;;;;;5058936;28;19922;-81
2022/01/21 03:51:53;;;;;;;;;;;-1.60;99.90;;;;;;4861804;29;19936;-80
2022/01/21 03:54:20;;;;;;;;;;;-1.70;99.90;;;;;;4595283;30;19938;-80
2022/01/21 04:01:53;;;;;;;;;;;-1.70;99.90;;;;;;5178976;27;19941;-83
2022/01/21 04:04:20;;;;;;;;;;;-1.70;99.90;;;;;;5117575;27;19923;-80
2022/01/21 04:06:47;;;;;;;;;;;-1.80;99.90;;;;;;5110950;28;19924;-83
2022/01/21 04:09:15;;;;;;;;;;;-1.80;99.90;;;;;;5062502;28;19925;-80
2022/01/21 04:11:42;;;;;;;;;;;-1.80;99.90;;;;;;4986503;28;19935;-81
2022/01/21 04:14:08;;;;;;;;;;;-1.80;99.90;;;;;;4846160;29;19929;-82
2022/01/21 04:16:35;;;;;;;;;;;-1.80;99.90;;;;;;4648131;29;19935;-82
2022/01/21 04:24:09;;;;;;;;;;;-1.90;99.90;;;;;;5186663;27;19925;-79
2022/01/21 04:26:40;;;;;;;;;;;-2.00;99.90;;;;;;5126165;27;19923;-80
2022/01/21 04:29:10;;;;;;;;;;;-1.90;99.90;;;;;;5083759;28;19925;-83
2022/01/21 04:31:43;;;;;;;;;;;-1.90;99.90;;;;;;5023903;28;19933;-83
2022/01/21 04:34:10;;;;;;;;;;;-1.90;99.90;;;;;;4937458;28;19927;-83
2022/01/21 04:36:37;;;;;;;;;;;-2.00;99.90;;;;;;4810838;29;19931;-82
2022/01/21 04:39:07;;;;;;;;;;;-2.00;99.90;;;;;;4538774;30;19936;-81
2022/01/21 04:49:26;;;;;;;;;;;-2.00;99.90;;;;;;5121919;27;19930;-83
2022/01/21 04:52:02;;;;;;;;;;;-2.00;99.90;;;;;;5104112;28;19924;-86
2022/01/21 04:54:36;;;;;;;;;;;-2.00;99.90;;;;;;5077648;28;19931;-85
2022/01/21 04:57:05;;;;;;;;;;;-2.10;99.90;;;;;;5040549;28;19926;-85
2022/01/21 04:59:35;;;;;;;;;;;-2.20;99.90;;;;;;4895803;28;19939;-81
2022/01/21 05:04:53;;;;;;;;;;;-2.20;99.90;;;;;;5182374;27;19930;-81
2022/01/21 05:07:24;;;;;;;;;;;-2.20;99.90;;;;;;5130024;27;19923;-88
2022/01/21 05:09:50;;;;;;;;;;;-2.20;99.90;;;;;;5112748;27;19923;-85
2022/01/21 05:12:20;;;;;;;;;;;-2.20;99.90;;;;;;5105762;28;19924;-82
2022/01/21 05:14:52;;;;;;;;;;;-2.30;99.90;;;;;;5017771;28;19935;-86
2022/01/21 05:17:28;;;;;;;;;;;-2.20;99.90;;;;;;4851288;28;19930;-82
2022/01/21 05:19:55;;;;;;;;;;;-2.20;99.90;;;;;;4601733;30;19943;-82
2022/01/21 05:25:26;;;;;;;;;;;-2.30;99.90;;;;;;5192281;27;19914;-83
2022/01/21 05:27:58;;;;;;;;;;;-2.30;99.90;;;;;;5106093;28;19924;-82
2022/01/21 05:30:25;;;;;;;;;;;-2.40;99.90;;;;;;5066910;28;19925;-85
2022/01/21 05:33:11;;;;;;;;;;;-2.30;99.90;;;;;;5040087;28;19932;-86
2022/01/21 05:35:56;;;;;;;;;;;-2.40;99.90;;;;;;4944387;28;19935;-86
2022/01/21 05:38:36;;;;;;;;;;;-2.40;99.90;;;;;;4855387;29;19935;-81
2022/01/21 05:41:23;;;;;;;;;;;-2.40;99.90;;;;;;4584558;30;20029;-84
2022/01/21 05:49:11;;;;;;;;;;;-2.40;99.90;;;;;;5175392;27;19926;-86
2022/01/21 05:52:18;;;;;;;;;;;-2.40;99.90;;;;;;5052389;28;19925;-87
2022/01/21 05:55:06;;;;;;;;;;;-2.40;99.90;;;;;;5008185;28;20025;-86
2022/01/21 05:57:47;;;;;;;;;;;-2.40;99.90;;;;;;4995135;28;19934;-85
2022/01/21 06:00:16;;;;;;;;;;;-2.30;99.90;;;;;;4896583;28;19951;-87
2022/01/21 06:02:48;;;;;;;;;;;-2.40;99.90;;;;;;4637920;30;19939;-85
2022/01/21 06:08:22;;;;;;;;;;;-2.30;99.90;;;;;;5154766;27;19926;-83
2022/01/21 06:10:49;;;;;;;;;;;-2.30;99.90;;;;;;5119157;27;19928;-82
2022/01/21 06:13:18;;;;;;;;;;;-2.40;99.90;;;;;;5094521;28;19932;-81
2022/01/21 06:15:45;;;;;;;;;;;-2.40;99.90;;;;;;5111793;28;19931;-82
2022/01/21 06:18:11;;;;;;;;;;;-2.40;99.90;;;;;;5039671;28;19926;-83
2022/01/21 06:20:38;;;;;;;;;;;-2.40;99.90;;;;;;4845694;29;19930;-80
2022/01/21 06:23:05;;;;;;;;;;;-2.40;99.90;;;;;;4637620;30;19941;-80
2022/01/21 06:30:33;;;;;;;;;;;-2.30;99.90;;;;;;5185814;27;19913;-81
2022/01/21 06:33:00;;;;;;;;;;;-2.30;99.90;;;;;;5131875;27;19924;-82
2022/01/21 06:35:26;;;;;;;;;;;-2.40;99.90;;;;;;5125721;27;19932;-82
2022/01/21 06:37:53;;;;;;;;;;;-2.40;99.90;;;;;;5046003;28;19925;-85
2022/01/21 06:40:20;;;;;;;;;;;-2.30;99.90;;;;;;4946301;28;19927;-84
2022/01/21 06:42:46;;;;;;;;;;;-2.40;99.90;;;;;;4800474;29;19926;-80
2022/01/21 06:45:13;;;;;;;;;;;-2.30;99.90;;;;;;4563420;30;19920;-82
2022/01/21 06:52:45;;;;;;;;;;;-2.30;99.90;;;;;;5172484;27;19926;-81
2022/01/21 06:55:12;;;;;;;;;;;-2.30;99.90;;;;;;5112132;28;19924;-77
2022/01/21 06:57:39;;;;;;;;;;;-2.40;99.90;;;;;;5112771;28;19927;-79
2022/01/21 07:00:07;;;;;;;;;;;-2.30;99.90;;;;;;5121725;28;19931;-80
2022/01/21 07:02:33;;;;;;;;;;;-2.30;99.90;;;;;;5041442;28;19927;-79
2022/01/21 07:05:00;;;;;;;;;;;-2.30;99.90;;;;;;4929725;28;19935;-81
2022/01/21 07:07:27;;;;;;;;;;;-2.30;99.90;;;;;;4690477;29;19934;-82
2022/01/21 07:14:29;;;;;;;;;;;-2.20;99.90;;;;;;5177181;27;19926;-84
2022/01/21 07:16:56;;;;;;;;;;;-2.10;99.90;;;;;;5133164;27;19924;-83
2022/01/21 07:19:22;;;;;;;;;;;-2.00;99.90;;;;;;5095435;28;19966;-81
2022/01/21 07:21:49;;;;;;;;;;;-1.90;99.90;;;;;;5075776;28;19925;-83
2022/01/21 07:24:16;;;;;;;;;;;-1.70;99.90;;;;;;4996385;28;19927;-81
2022/01/21 07:26:42;;;;;;;;;;;-1.50;99.90;;;;;;4923154;28;19929;-81
2022/01/21 07:29:09;;;;;;;;;;;-1.20;99.90;;;;;;4678512;29;19933;-83
2022/01/21 07:36:41;;;;;;;;;;;-0.50;99.90;;;;;;5174205;27;19926;-85
2022/01/21 07:39:08;;;;;;;;;;;-0.30;99.90;;;;;;5137909;27;19934;-85
2022/01/21 07:41:34;;;;;;;;;;;0.10;99.90;;;;;;5130357;27;19938;-84
2022/01/21 07:44:01;;;;;;;;;;;0.30;99.90;;;;;;5058610;28;19928;-82
2022/01/21 07:46:28;;;;;;;;;;;0.70;99.90;;;;;;5019312;28;19938;-82
2022/01/21 07:48:56;;;;;;;;;;;0.60;99.90;;;;;;4855521;29;19937;-80
2022/01/21 07:51:23;;;;;;;;;;;1.10;99.90;;;;;;4673639;29;19945;-81
2022/01/21 07:58:56;;;;;;;;;;;1.50;99.90;;;;;;5191443;27;19926;-83
2022/01/21 08:01:23;;;;;;;;;;;1.90;99.90;;;;;;5169588;27;19922;-82
2022/01/21 08:03:50;;;;;;;;;;;2.40;99.90;;;;;;5178941;27;19937;-81
2022/01/21 08:06:17;;;;;;;;;;;2.70;99.90;;;;;;5164495;27;19942;-85
2022/01/21 08:08:43;;;;;;;;;;;2.70;99.90;;;;;;5106716;28;19923;-79
2022/01/21 08:11:10;;;;;;;;;;;2.70;99.90;;;;;;5026299;28;19919;-80
2022/01/21 08:13:36;;;;;;;;;;;3.20;99.90;;;;;;4823527;29;19916;-80
2022/01/21 08:21:18;;;;;;;;;;;3.10;99.90;;;;;;5172761;27;19927;-80
2022/01/21 08:23:44;;;;;;;;;;;3.60;99.90;;;;;;5109022;27;19931;-80
2022/01/21 08:26:12;;;;;;;;;;;3.90;99.90;;;;;;5123295;28;19924;-80
2022/01/21 08:28:38;;;;;;;;;;;4.80;99.90;;;;;;5090355;28;19932;-78
2022/01/21 08:31:05;;;;;;;;;;;6.30;99.90;;;;;;4997282;28;19928;-82
2022/01/21 08:33:31;;;;;;;;;;;6.40;99.90;;;;;;4832130;29;20019;-83
2022/01/21 08:35:58;;;;;;;;;;;6.80;99.90;;;;;;4613943;30;19946;-81
2022/01/21 08:42:38;;;;;;;;;;;7.30;99.90;;;;;;5155591;27;19926;-82
2022/01/21 08:45:05;;;;;;;;;;;7.10;99.90;;;;;;5132557;27;19946;-82
2022/01/21 08:47:32;;;;;;;;;;;7.20;99.90;;;;;;5116299;27;19923;-82
2022/01/21 08:50:05;;;;;;;;;;;7.30;99.90;;;;;;5125305;28;19924;-81
2022/01/21 08:52:36;;;;;;;;;;;7.20;98.40;;;;;;5061178;28;19928;-81
2022/01/21 08:55:03;;;;;;;;;;;6.50;99.90;;;;;;4930449;28;19928;-83
2022/01/21 08:57:29;;;;;;;;;;;6.70;99.90;;;;;;4701492;29;19956;-85
2022/01/21 09:05:02;;;;;;;;;;;6.80;99.90;;;;;;5179057;27;19926;-81
2022/01/21 09:07:29;;;;;;;;;;;7.30;99.90;;;;;;5134279;27;19923;-82
2022/01/21 09:09:56;;;;;;;;;;;7.90;99.00;;;;;;5116301;28;19939;-82
2022/01/21 09:12:22;;;;;;;;;;;8.30;98.10;;;;;;5054900;28;19925;-84
2022/01/21 09:14:50;;;;;;;;;;;8.60;96.40;;;;;;4960324;28;19944;-85
2022/01/21 09:17:17;;;;;;;;;;;8.60;96.10;;;;;;4790874;29;19930;-83
2022/01/21 09:19:44;;;;;;;;;;;8.50;94.30;;;;;;4646237;29;19934;-84
2022/01/21 09:27:15;;;;;;;;;;;9.10;92.40;;;;;;5176623;27;19925;-82
2022/01/21 09:29:42;;;;;;;;;;;9.70;90.80;;;;;;5137783;27;19930;-85
2022/01/21 09:32:09;;;;;;;;;;;10.80;85.30;;;;;;5130142;27;19928;-82
2022/01/21 09:34:36;;;;;;;;;;;11.70;78.70;;;;;;5133594;28;19912;-82
2022/01/21 09:37:03;;;;;;;;;;;12.40;75.90;;;;;;5078239;28;19927;-80
2022/01/21 09:39:30;;;;;;;;;;;13.30;70.90;;;;;;4829187;29;19931;-81
2022/01/21 09:41:59;;;;;;;;;;;13.50;65.30;;;;;;4441283;30;19963;-85
2022/01/21 09:49:32;;;;;;;;;;;12.70;67.60;;;;;;5174826;27;19926;-81
2022/01/21 09:51:59;;;;;;;;;;;12.20;65.60;;;;;;5138131;27;19923;-82
2022/01/21 09:54:27;;;;;;;;;;;11.40;67.40;;;;;;5138322;27;19923;-82
2022/01/21 09:56:57;;;;;;;;;;;11.50;67.90;;;;;;5117246;28;19925;-84
2022/01/21 09:59:24;;;;;;;;;;;10.90;70.20;;;;;;5031242;28;19933;-80
2022/01/21 10:01:51;;;;;;;;;;;10.60;72.00;;;;;;4884446;28;19937;-81
2022/01/21 10:04:19;;;;;;;;;;;10.90;71.80;;;;;;4618522;29;19935;-82
2022/01/21 10:11:18;;;;;;;;;;;13.70;64.20;;;;;;5167567;27;19926;-84
2022/01/21 10:13:47;;;;;;;;;;;13.20;63.00;;;;;;5093377;28;19926;-85
2022/01/21 10:16:14;;;;;;;;;;;13.30;63.10;;;;;;5080414;28;19930;-85
2022/01/21 10:18:41;;;;;;;;;;;13.20;62.30;;;;;;5038227;28;19940;-82
2022/01/21 10:21:11;;;;;;;;;;;13.00;63.00;;;;;;4970170;28;19934;-79
2022/01/21 10:23:40;;;;;;;;;;;13.00;62.50;;;;;;4851413;29;19929;-80
2022/01/21 10:26:08;;;;;;;;;;;13.30;62.80;;;;;;4631289;30;19945;-81
2022/01/21 10:33:41;;;;;;;;;;;14.10;58.40;;;;;;5185214;27;19925;-80
2022/01/21 10:36:09;;;;;;;;;;;14.40;59.50;;;;;;5136837;27;19923;-82
2022/01/21 10:38:41;;;;;;;;;;;14.90;57.10;;;;;;5105616;28;19935;-82
2022/01/21 10:41:09;;;;;;;;;;;14.50;57.00;;;;;;5081293;28;19924;-83
2022/01/21 10:43:36;;;;;;;;;;;15.30;58.10;;;;;;5025961;28;19934;-82
2022/01/21 10:46:03;;;;;;;;;;;15.70;54.90;;;;;;4826255;29;19930;-85
2022/01/21 10:48:30;;;;;;;;;;;14.20;55.60;;;;;;4597033;30;19934;-81
2022/01/21 10:56:22;;;;;;;;;;;12.20;58.70;;;;;;5181925;27;19910;-81
2022/01/21 10:58:51;;;;;;;;;;;11.50;64.10;;;;;;5160955;27;19923;-80
2022/01/21 11:01:21;;;;;;;;;;;10.90;64.60;;;;;;5153091;27;19923;-82
2022/01/21 11:03:59;;;;;;;;;;;10.60;65.30;;;;;;5102469;28;19924;-82
2022/01/21 11:06:29;;;;;;;;;;;10.80;65.20;;;;;;5017999;28;19926;-84
2022/01/21 11:09:11;;;;;;;;;;;10.90;65.00;;;;;;4864425;28;19929;-85
2022/01/21 11:14:55;;;;;;;;;;;10.50;67.00;;;;;;4540600;30;19944;-83
2022/01/21 11:22:20;;;;;;;;;;;10.50;67.30;;;;;;5158310;27;19927;-83
2022/01/21 11:24:48;;;;;;;;;;;9.00;72.00;;;;;;5114130;28;19924;-84
2022/01/21 11:27:16;;;;;;;;;;;9.10;73.80;;;;;;5114112;28;19931;-83
2022/01/21 11:29:43;;;;;;;;;;;9.20;74.90;;;;;;5066195;28;19924;-81
2022/01/21 11:32:11;;;;;;;;;;;8.80;73.40;;;;;;4992267;28;19934;-81
2022/01/21 11:34:37;;;;;;;;;;;9.00;77.30;;;;;;4844787;29;19929;-81
2022/01/21 11:37:05;;;;;;;;;;;9.00;73.70;;;;;;4706154;29;19933;-83
2022/01/21 11:44:24;;;;;;;;;;;9.70;76.70;;;;;;5175389;27;19926;-81
2022/01/21 11:49:37;;;;;;;;;;;10.00;69.80;;;;;;5077111;28;19924;-84
2022/01/21 11:52:18;;;;;;;;;;;9.20;73.40;;;;;;5086653;28;19924;-82
2022/01/21 11:54:45;;;;;;;;;;;9.40;72.80;;;;;;4980397;28;19944;-84
2022/01/21 11:57:14;;;;;;;;;;;9.50;72.90;;;;;;4876756;28;19980;-83
2022/01/21 11:59:50;;;;;;;;;;;9.30;71.40;;;;;;4629304;30;19934;-82
2022/01/21 12:06:35;;;;;;;;;;;9.40;73.60;;;;;;5167386;27;19925;-83
2022/01/21 12:09:04;;;;;;;;;;;9.00;74.00;;;;;;5116212;28;19924;-86
2022/01/21 12:11:32;;;;;;;;;;;8.80;72.90;;;;;;5085597;28;19932;-87
2022/01/21 12:13:58;;;;;;;;;;;8.60;73.30;;;;;;5060568;28;19939;-85
2022/01/21 12:16:47;;;;;;;;;;;8.20;72.60;;;;;;5013913;28;19950;-82
2022/01/21 12:19:23;;;;;;;;;;;7.70;74.30;;;;;;4808090;29;19941;-84
2022/01/21 12:21:57;;;;;;;;;;;7.10;75.80;;;;;;4605815;30;19936;-83
2022/01/21 12:24:43;;;;;;;;;;;7.30;76.80;;;;;;4346651;32;19950;-83
2022/01/21 12:32:28;;;;;;;;;;;6.50;80.50;;;;;;5165205;27;19926;-80
2022/01/21 12:35:18;;;;;;;;;;;6.10;80.90;;;;;;5091269;28;19908;-90
2022/01/21 12:39:05;;;;;;;;;;;5.60;82.70;;;;;;5064115;28;19926;-81
2022/01/21 12:40:50;;;;;;;;;;;5.50;83.10;;;;;;4996940;28;19926;-84
2022/01/21 12:43:36;;;;;;;;;;;5.20;85.10;;;;;;4871955;28;19945;-86
2022/01/21 12:46:03;;;;;;;;;;;5.10;84.60;;;;;;4760428;29;19953;-81
2022/01/21 12:48:34;;;;;;;;;;;5.00;85.30;;;;;;4479909;30;19950;-81
2022/01/21 12:56:44;;;;;;;;;;;4.70;89.50;;;;;;5081591;28;19942;-83
2022/01/21 12:59:15;;;;;;;;;;;4.70;90.40;;;;;;5037482;28;19925;-85
2022/01/21 13:01:42;;;;;;;;;;;4.60;92.00;;;;;;4998558;28;19941;-83
2022/01/21 13:04:12;;;;;;;;;;;4.40;95.60;;;;;;4947616;28;19935;-82
2022/01/21 13:06:48;;;;;;;;;;;4.40;98.00;;;;;;4782613;29;19931;-83
2022/01/21 13:09:19;;;;;;;;;;;4.40;99.50;;;;;;4394811;31;19948;-83
2022/01/21 13:16:40;;;;;;;;;;;4.10;99.90;;;;;;5173661;27;19925;-85
2022/01/21 13:19:06;;;;;;;;;;;4.00;99.90;;;;;;5131589;27;19931;-81
2022/01/21 13:21:34;;;;;;;;;;;3.80;99.90;;;;;;5099269;28;19936;-83
2022/01/21 13:24:10;;;;;;;;;;;3.70;99.90;;;;;;5038364;28;19929;-85
2022/01/21 13:26:39;;;;;;;;;;;3.60;99.90;;;;;;4899212;28;19952;-86
2022/01/21 13:29:28;;;;;;;;;;;3.60;99.90;;;;;;4679626;29;19934;-85
2022/01/21 13:32:02;;;;;;;;;;;3.60;99.90;;;;;;4518503;31;19933;-83
2022/01/21 13:34:30;;;;;;;;;;;3.40;99.90;;;;;;4363042;32;19941;-84
2022/01/21 13:42:07;;;;;;;;;;;3.40;99.90;;;;;;5173213;27;19926;-82
2022/01/21 13:44:36;;;;;;;;;;;3.30;99.90;;;;;;5098862;28;19924;-81
2022/01/21 13:47:04;;;;;;;;;;;3.20;99.90;;;;;;5106965;28;19912;-80
2022/01/21 13:49:31;;;;;;;;;;;3.20;99.90;;;;;;5082964;28;19929;-84
2022/01/21 13:51:59;;;;;;;;;;;3.20;99.90;;;;;;4967343;28;19950;-82
2022/01/21 13:54:33;;;;;;;;;;;3.10;99.90;;;;;;4742101;29;19933;-83
2022/01/21 13:57:00;;;;;;;;;;;3.10;99.90;;;;;;4497659;30;19938;-85
2022/01/21 14:04:34;;;;;;;;;;;2.90;99.90;;;;;;5178688;27;19926;-82
2022/01/21 14:07:01;;;;;;;;;;;2.90;99.90;;;;;;5114473;27;19924;-84
2022/01/21 14:09:27;;;;;;;;;;;2.80;99.90;;;;;;5111094;27;19923;-84
2022/01/21 14:11:54;;;;;;;;;;;2.90;99.90;;;;;;5096239;28;19924;-85
2022/01/21 14:14:22;;;;;;;;;;;2.80;99.90;;;;;;5037870;28;19926;-82
2022/01/21 14:16:54;;;;;;;;;;;2.80;99.90;;;;;;4800690;29;19931;-80
2022/01/21 14:19:22;;;;;;;;;;;2.80;99.90;;;;;;4649364;30;19933;-84
2022/01/21 14:26:54;;;;;;;;;;;2.70;99.90;;;;;;5175376;27;19926;-87
2022/01/21 14:29:27;;;;;;;;;;;2.70;99.90;;;;;;5119389;27;19923;-86
2022/01/21 14:31:54;;;;;;;;;;;2.80;99.90;;;;;;5100379;28;19931;-87
2022/01/21 14:34:22;;;;;;;;;;;2.70;99.90;;;;;;5086137;28;19925;-88
2022/01/21 14:36:58;;;;;;;;;;;2.70;99.90;;;;;;4929207;28;19928;-82
2022/01/21 14:39:24;;;;;;;;;;;2.70;99.90;;;;;;4762189;29;19931;-83
2022/01/21 14:41:52;;;;;;;;;;;2.70;99.90;;;;;;4550695;30;19937;-83
2022/01/21 14:49:03;;;;;;;;;;;2.60;99.90;;;;;;5175238;27;19926;-82
2022/01/21 14:51:35;;;;;;;;;;;2.60;99.90;;;;;;5123120;28;19924;-80
2022/01/21 14:54:09;;;;;;;;;;;2.60;99.90;;;;;;5074729;28;19932;-81
2022/01/21 14:56:36;;;;;;;;;;;2.60;99.90;;;;;;5059189;28;19925;-84
2022/01/21 14:59:06;;;;;;;;;;;2.50;99.90;;;;;;4936830;28;19928;-81
2022/01/21 15:01:32;;;;;;;;;;;2.50;99.90;;;;;;4796913;29;19930;-81
2022/01/21 15:04:10;;;;;;;;;;;2.50;99.90;;;;;;4476167;30;19939;-82
2022/01/21 15:11:57;;;;;;;;;;;2.40;99.90;;;;;;5174920;27;19926;-81
2022/01/21 15:14:25;;;;;;;;;;;2.40;99.90;;;;;;5119675;27;19913;-79
2022/01/21 15:16:52;;;;;;;;;;;2.40;99.90;;;;;;5123485;28;19932;-80
2022/01/21 15:19:18;;;;;;;;;;;2.40;99.90;;;;;;5060494;28;19940;-84
2022/01/21 15:21:47;;;;;;;;;;;2.40;99.90;;;;;;4953246;28;19928;-86
2022/01/21 15:24:14;;;;;;;;;;;2.40;99.90;;;;;;4796971;29;19959;-81
2022/01/21 15:26:42;;;;;;;;;;;2.30;99.90;;;;;;4578323;30;19936;-82
2022/01/21 15:34:11;;;;;;;;;;;2.30;99.90;;;;;;5174780;27;19942;-84
2022/01/21 15:36:38;;;;;;;;;;;2.20;99.90;;;;;;5118417;28;19924;-81
2022/01/21 15:39:06;;;;;;;;;;;2.20;99.90;;;;;;5079713;28;19931;-81
2022/01/21 15:41:32;;;;;;;;;;;2.20;99.90;;;;;;5055422;28;19933;-82
2022/01/21 15:43:59;;;;;;;;;;;2.10;99.90;;;;;;5028530;28;19930;-84
2022/01/21 15:46:26;;;;;;;;;;;2.10;99.90;;;;;;4948810;28;19947;-88
2022/01/21 15:48:52;;;;;;;;;;;2.10;99.90;;;;;;4623678;29;19937;-84
2022/01/21 15:56:28;;;;;;;;;;;2.10;99.90;;;;;;5178755;27;19926;-85
2022/01/21 15:58:55;;;;;;;;;;;2.10;99.90;;;;;;5139116;27;19923;-84
2022/01/21 16:01:21;;;;;;;;;;;2.10;99.90;;;;;;5130869;27;19935;-83
2022/01/21 16:03:48;;;;;;;;;;;2.00;99.90;;;;;;5108710;28;19931;-86
2022/01/21 16:06:16;;;;;;;;;;;2.00;99.90;;;;;;5027632;28;19926;-88
2022/01/21 16:08:44;;;;;;;;;;;2.00;99.90;;;;;;4822426;29;19935;-86
2022/01/21 16:11:11;;;;;;;;;;;2.00;99.90;;;;;;4516528;30;19936;-87
2022/01/21 16:18:44;;;;;;;;;;;2.00;99.90;;;;;;5171059;27;19938;-85
2022/01/21 16:21:10;;;;;;;;;;;1.90;99.90;;;;;;5133117;27;19931;-83
2022/01/21 16:23:37;;;;;;;;;;;1.90;99.90;;;;;;5104119;28;19938;-85
2022/01/21 16:26:04;;;;;;;;;;;1.90;99.90;;;;;;5083495;28;19925;-83
2022/01/21 16:28:32;;;;;;;;;;;1.90;99.90;;;;;;4987982;28;19927;-85
2022/01/21 16:30:58;;;;;;;;;;;1.90;99.90;;;;;;4733548;29;19939;-85
2022/01/21 16:33:26;;;;;;;;;;;1.90;99.90;;;;;;4567179;30;19936;-84
2022/01/21 16:40:57;;;;;;;;;;;1.80;99.90;;;;;;5188939;27;19926;-80
2022/01/21 16:43:24;;;;;;;;;;;1.80;99.90;;;;;;5138485;27;19923;-79
2022/01/21 16:45:51;;;;;;;;;;;1.80;99.90;;;;;;5118884;28;20519;-80
2022/01/21 16:48:17;;;;;;;;;;;1.80;99.90;;;;;;5059945;28;19924;-82
2022/01/21 16:50:44;;;;;;;;;;;1.70;99.90;;;;;;4994444;28;19938;-84
2022/01/21 16:53:11;;;;;;;;;;;1.70;99.90;;;;;;4811138;29;19937;-83
2022/01/21 16:55:38;;;;;;;;;;;1.70;99.90;;;;;;4608424;30;19942;-81
2022/01/21 17:03:09;;;;;;;;;;;1.60;99.90;;;;;;5173778;27;19925;-86
2022/01/21 17:05:36;;;;;;;;;;;1.50;99.90;;;;;;5136416;27;19938;-81
2022/01/21 17:08:05;;;;;;;;;;;1.60;99.90;;;;;;5128041;28;19932;-82
2022/01/21 17:10:32;;;;;;;;;;;1.60;99.90;;;;;;5065726;28;19930;-81
2022/01/21 17:12:58;;;;;;;;;;;1.50;99.90;;;;;;4969269;28;19958;-82
2022/01/21 17:15:25;;;;;;;;;;;1.50;99.90;;;;;;4821351;29;19938;-85
2022/01/21 17:17:51;;;;;;;;;;;1.60;99.90;;;;;;4585173;30;19936;-85
2022/01/21 17:25:25;;;;;;;;;;;1.60;99.90;;;;;;5174652;27;19926;-86
2022/01/21 17:27:52;;;;;;;;;;;1.70;99.90;;;;;;5137111;27;19923;-85
2022/01/21 17:30:21;;;;;;;;;;;1.70;99.90;;;;;;5142316;27;19938;-84
2022/01/21 17:32:48;;;;;;;;;;;1.60;99.90;;;;;;5098007;28;19936;-87
2022/01/21 17:35:15;;;;;;;;;;;1.60;99.90;;;;;;4982979;28;19927;-87
2022/01/21 17:37:42;;;;;;;;;;;1.60;99.90;;;;;;4825000;29;19942;-85
2022/01/21 17:40:10;;;;;;;;;;;1.70;99.90;;;;;;4539594;30;19936;-87
2022/01/21 17:46:57;;;;;;;;;;;1.70;99.90;;;;;;5179274;27;19925;-87
2022/01/21 17:49:24;;;;;;;;;;;1.70;99.90;;;;;;5138292;27;19923;-87
2022/01/21 17:51:51;;;;;;;;;;;1.70;99.90;;;;;;5125675;27;19931;-85
2022/01/21 17:54:18;;;;;;;;;;;1.70;99.90;;;;;;5114251;27;19924;-83
2022/01/21 17:56:48;;;;;;;;;;;1.80;99.90;;;;;;5081934;28;19925;-84
2022/01/21 17:59:14;;;;;;;;;;;1.80;99.90;;;;;;4931082;28;19928;-87
2022/01/21 18:01:41;;;;;;;;;;;1.80;99.90;;;;;;4683563;29;19933;-80
2022/01/21 18:09:17;;;;;;;;;;;1.90;99.90;;;;;;5178824;27;19925;-82
2022/01/21 18:11:44;;;;;;;;;;;1.90;99.90;;;;;;5123705;27;19923;-81
2022/01/21 18:14:11;;;;;;;;;;;1.90;99.90;;;;;;5114503;27;19924;-81
2022/01/21 18:16:38;;;;;;;;;;;1.90;99.90;;;;;;5108757;27;19931;-83
2022/01/21 18:19:11;;;;;;;;;;;1.90;99.90;;;;;;5075933;28;19925;-81
2022/01/21 18:21:38;;;;;;;;;;;1.90;99.90;;;;;;4914866;28;19937;-83
2022/01/21 18:24:05;;;;;;;;;;;1.90;99.90;;;;;;4575876;30;19935;-81
2022/01/21 18:31:38;;;;;;;;;;;2.00;99.90;;;;;;5164874;27;19930;-81
2022/01/21 18:34:05;;;;;;;;;;;2.10;99.90;;;;;;5117416;27;19923;-85
2022/01/21 18:36:32;;;;;;;;;;;2.00;99.90;;;;;;5115874;27;19923;-84
2022/01/21 18:38:59;;;;;;;;;;;2.10;99.90;;;;;;5079490;28;19925;-84
2022/01/21 18:41:28;;;;;;;;;;;2.10;99.90;;;;;;4994365;28;19915;-85
2022/01/21 18:43:57;;;;;;;;;;;2.10;99.90;;;;;;4837716;29;19940;-83
2022/01/21 18:46:25;;;;;;;;;;;2.10;99.90;;;;;;4574573;30;19945;-78
2022/01/21 18:53:57;;;;;;;;;;;2.10;99.90;;;;;;5176671;27;19926;-81
2022/01/21 18:56:24;;;;;;;;;;;2.20;99.90;;;;;;5137682;27;19923;-84
2022/01/21 18:58:51;;;;;;;;;;;2.20;99.90;;;;;;5140337;27;19931;-78
2022/01/21 19:01:20;;;;;;;;;;;2.20;99.90;;;;;;5137861;27;19924;-86
2022/01/21 19:03:51;;;;;;;;;;;2.30;99.90;;;;;;5079615;28;19936;-84
2022/01/21 19:06:18;;;;;;;;;;;2.30;99.90;;;;;;4965707;28;19934;-84